sensor_id;sensor_type;location;lat;lon;timestamp;temperature;humidity
30174;DHT22;16985;50.814;8.530;2022-08-11T00:01:50;18.30;65.60
30174;DHT22;16985;50.814;8.530;2022-08-11T00:04:21;18.20;65.60
30174;DHT22;16985;50.814;8.530;2022-08-11T00:06:49;18.20;66.10
30174;DHT22;16985;50.814;8.530;2022-08-11T00:09:20;18.10;66.50
30174;DHT22;16985;50.814;8.530;2022-08-11T00:11:51;18.10;66.30
30174;DHT22;16985;50.814;8.530;2022-08-11T00:14:19;18.00;66.60
30174;DHT22;16985;50.814;8.530;2022-08-11T00:16:53;18.00;66.50
30174;DHT22;16985;50.814;8.530;2022-08-11T00:19:23;17.90;66.50
30174;DHT22;16985;50.814;8.530;2022-08-11T00:21:50;17.90;66.60
30174;DHT22;16985;50.814;8.530;2022-08-11T00:24:19;17.90;66.70
30174;DHT22;16985;50.814;8.530;2022-08-11T00:26:53;17.90;66.90
30174;DHT22;16985;50.814;8.530;2022-08-11T00:29:20;17.80;66.90
30174;DHT22;16985;50.814;8.530;2022-08-11T00:31:56;17.80;67.00
30174;DHT22;16985;50.814;8.530;2022-08-11T00:34:28;17.80;67.30
30174;DHT22;16985;50.814;8.530;2022-08-11T00:37:07;17.80;67.40
30174;DHT22;16985;50.814;8.530;2022-08-11T00:39:41;17.70;67.50
30174;DHT22;16985;50.814;8.530;2022-08-11T00:45:38;17.60;67.90
30174;DHT22;16985;50.814;8.530;2022-08-11T01:00:00;17.40;68.70
30174;DHT22;16985;50.814;8.530;2022-08-11T01:14:52;17.20;69.10
30174;DHT22;16985;50.814;8.530;2022-08-11T01:36:01;16.80;70.60
30174;DHT22;16985;50.814;8.530;2022-08-11T01:38:46;16.80;70.50
30174;DHT22;16985;50.814;8.530;2022-08-11T01:45:24;16.70;70.60
30174;DHT22;16985;50.814;8.530;2022-08-11T01:53:58;16.70;71.20
30174;DHT22;16985;50.814;8.530;2022-08-11T01:57:00;16.60;71.50
30174;DHT22;16985;50.814;8.530;2022-08-11T01:59:46;16.60;71.40
30174;DHT22;16985;50.814;8.530;2022-08-11T02:02:38;16.50;71.50
30174;DHT22;16985;50.814;8.530;2022-08-11T02:11:32;16.40;72.00
30174;DHT22;16985;50.814;8.530;2022-08-11T02:14:16;16.30;72.20
30174;DHT22;16985;50.814;8.530;2022-08-11T02:23:36;16.20;73.30
30174;DHT22;16985;50.814;8.530;2022-08-11T02:26:28;16.10;73.00
30174;DHT22;16985;50.814;8.530;2022-08-11T02:29:18;16.10;73.20
30174;DHT22;16985;50.814;8.530;2022-08-11T02:35:33;16.00;73.70
30174;DHT22;16985;50.814;8.530;2022-08-11T02:44:22;15.90;74.00
30174;DHT22;16985;50.814;8.530;2022-08-11T02:46:57;15.90;73.70
30174;DHT22;16985;50.814;8.530;2022-08-11T02:49:55;16.00;73.80
30174;DHT22;16985;50.814;8.530;2022-08-11T02:52:36;15.90;73.80
30174;DHT22;16985;50.814;8.530;2022-08-11T02:55:34;15.90;74.20
30174;DHT22;16985;50.814;8.530;2022-08-11T02:58:32;15.80;74.30
30174;DHT22;16985;50.814;8.530;2022-08-11T03:01:27;15.80;74.50
30174;DHT22;16985;50.814;8.530;2022-08-11T03:04:11;15.80;74.30
30174;DHT22;16985;50.814;8.530;2022-08-11T03:06:51;15.70;74.60
30174;DHT22;16985;50.814;8.530;2022-08-11T03:12:24;15.70;75.00
30174;DHT22;16985;50.814;8.530;2022-08-11T03:15:21;15.70;75.20
30174;DHT22;16985;50.814;8.530;2022-08-11T03:18:31;15.60;75.40
30174;DHT22;16985;50.814;8.530;2022-08-11T03:21:23;15.60;75.40
30174;DHT22;16985;50.814;8.530;2022-08-11T03:24:04;15.50;75.70
30174;DHT22;16985;50.814;8.530;2022-08-11T03:29:33;15.40;76.00
30174;DHT22;16985;50.814;8.530;2022-08-11T03:34:29;15.40;75.80
30174;DHT22;16985;50.814;8.530;2022-08-11T03:37:04;15.30;76.10
30174;DHT22;16985;50.814;8.530;2022-08-11T03:40:06;15.40;76.20
30174;DHT22;16985;50.814;8.530;2022-08-11T03:42:57;15.30;76.50
30174;DHT22;16985;50.814;8.530;2022-08-11T03:45:36;15.30;76.30
30174;DHT22;16985;50.814;8.530;2022-08-11T03:48:42;15.30;76.30
30174;DHT22;16985;50.814;8.530;2022-08-11T03:54:37;15.20;76.60
30174;DHT22;16985;50.814;8.530;2022-08-11T03:57:25;15.20;76.90
30174;DHT22;16985;50.814;8.530;2022-08-11T04:00:37;15.10;76.80
30174;DHT22;16985;50.814;8.530;2022-08-11T04:25:04;14.80;78.60
30174;DHT22;16985;50.814;8.530;2022-08-11T04:27:52;14.80;78.70
30174;DHT22;16985;50.814;8.530;2022-08-11T04:30:56;14.70;78.60
30174;DHT22;16985;50.814;8.530;2022-08-11T04:33:52;14.70;79.10
30174;DHT22;16985;50.814;8.530;2022-08-11T04:53:18;14.60;80.90
30174;DHT22;16985;50.814;8.530;2022-08-11T04:56:30;14.60;80.70
30174;DHT22;16985;50.814;8.530;2022-08-11T04:59:32;14.50;80.90
30174;DHT22;16985;50.814;8.530;2022-08-11T05:11:42;14.60;81.20
30174;DHT22;16985;50.814;8.530;2022-08-11T05:17:21;14.60;81.00
30174;DHT22;16985;50.814;8.530;2022-08-11T05:20:10;14.60;80.90
30174;DHT22;16985;50.814;8.530;2022-08-11T05:23:01;14.60;80.90
30174;DHT22;16985;50.814;8.530;2022-08-11T05:25:53;14.70;81.10
30174;DHT22;16985;50.814;8.530;2022-08-11T05:28:53;14.70;81.30
30174;DHT22;16985;50.814;8.530;2022-08-11T05:31:42;14.80;81.40
30174;DHT22;16985;50.814;8.530;2022-08-11T05:34:42;14.70;81.20
30174;DHT22;16985;50.814;8.530;2022-08-11T05:37:32;14.80;81.50
30174;DHT22;16985;50.814;8.530;2022-08-11T05:40:11;14.80;81.60
30174;DHT22;16985;50.814;8.530;2022-08-11T05:42:58;14.80;81.70
30174;DHT22;16985;50.814;8.530;2022-08-11T05:45:58;14.80;81.90
30174;DHT22;16985;50.814;8.530;2022-08-11T05:48:44;14.80;81.90
30174;DHT22;16985;50.814;8.530;2022-08-11T05:51:48;14.90;82.00
30174;DHT22;16985;50.814;8.530;2022-08-11T05:54:32;14.90;82.00
30174;DHT22;16985;50.814;8.530;2022-08-11T05:57:28;14.90;82.00
30174;DHT22;16985;50.814;8.530;2022-08-11T06:00:00;15.00;82.00
30174;DHT22;16985;50.814;8.530;2022-08-11T06:02:32;15.00;82.10
30174;DHT22;16985;50.814;8.530;2022-08-11T06:05:00;15.00;82.10
30174;DHT22;16985;50.814;8.530;2022-08-11T06:07:28;15.10;82.00
30174;DHT22;16985;50.814;8.530;2022-08-11T06:09:55;15.10;81.90
30174;DHT22;16985;50.814;8.530;2022-08-11T06:12:24;15.20;81.80
30174;DHT22;16985;50.814;8.530;2022-08-11T06:14:56;15.30;82.10
30174;DHT22;16985;50.814;8.530;2022-08-11T06:17:25;15.30;82.30
30174;DHT22;16985;50.814;8.530;2022-08-11T06:20:03;15.30;82.30
30174;DHT22;16985;50.814;8.530;2022-08-11T06:22:31;15.40;82.60
30174;DHT22;16985;50.814;8.530;2022-08-11T06:25:00;15.40;82.60
30174;DHT22;16985;50.814;8.530;2022-08-11T06:27:30;15.50;82.90
30174;DHT22;16985;50.814;8.530;2022-08-11T06:29:58;15.50;82.80
30174;DHT22;16985;50.814;8.530;2022-08-11T06:32:27;15.60;83.20
30174;DHT22;16985;50.814;8.530;2022-08-11T06:35:29;15.70;83.60
30174;DHT22;16985;50.814;8.530;2022-08-11T06:38:09;15.70;83.90
30174;DHT22;16985;50.814;8.530;2022-08-11T06:40:48;15.80;84.30
30174;DHT22;16985;50.814;8.530;2022-08-11T06:46:40;16.00;85.10
30174;DHT22;16985;50.814;8.530;2022-08-11T06:49:09;16.10;85.90
30174;DHT22;16985;50.814;8.530;2022-08-11T06:51:59;16.20;86.50
30174;DHT22;16985;50.814;8.530;2022-08-11T06:54:32;16.30;86.50
30174;DHT22;16985;50.814;8.530;2022-08-11T06:57:06;16.50;86.40
30174;DHT22;16985;50.814;8.530;2022-08-11T06:59:54;16.60;85.70
30174;DHT22;16985;50.814;8.530;2022-08-11T07:02:51;16.70;84.20
30174;DHT22;16985;50.814;8.530;2022-08-11T07:15:34;17.30;82.60
30174;DHT22;16985;50.814;8.530;2022-08-11T07:18:17;17.50;82.20
30174;DHT22;16985;50.814;8.530;2022-08-11T07:21:23;17.60;81.60
30174;DHT22;16985;50.814;8.530;2022-08-11T07:24:20;17.80;81.10
30174;DHT22;16985;50.814;8.530;2022-08-11T07:27:14;17.90;80.70
30174;DHT22;16985;50.814;8.530;2022-08-11T07:30:07;18.10;80.00
30174;DHT22;16985;50.814;8.530;2022-08-11T07:32:46;18.20;79.00
30174;DHT22;16985;50.814;8.530;2022-08-11T07:35:19;18.30;78.60
30174;DHT22;16985;50.814;8.530;2022-08-11T07:37:51;18.50;78.30
30174;DHT22;16985;50.814;8.530;2022-08-11T07:40:22;18.60;77.80
30174;DHT22;16985;50.814;8.530;2022-08-11T07:42:49;18.80;77.50
30174;DHT22;16985;50.814;8.530;2022-08-11T07:45:15;18.90;76.80
30174;DHT22;16985;50.814;8.530;2022-08-11T07:48:00;19.00;76.40
30174;DHT22;16985;50.814;8.530;2022-08-11T07:50:45;19.20;75.60
30174;DHT22;16985;50.814;8.530;2022-08-11T07:53:32;19.30;74.70
30174;DHT22;16985;50.814;8.530;2022-08-11T07:55:59;19.50;74.10
30174;DHT22;16985;50.814;8.530;2022-08-11T07:58:30;19.60;72.80
30174;DHT22;16985;50.814;8.530;2022-08-11T08:01:19;19.80;71.90
30174;DHT22;16985;50.814;8.530;2022-08-11T08:04:08;19.90;71.20
30174;DHT22;16985;50.814;8.530;2022-08-11T08:06:55;20.00;70.90
30174;DHT22;16985;50.814;8.530;2022-08-11T08:09:41;20.20;70.40
30174;DHT22;16985;50.814;8.530;2022-08-11T08:12:27;20.30;70.20
30174;DHT22;16985;50.814;8.530;2022-08-11T08:15:14;20.50;69.00
30174;DHT22;16985;50.814;8.530;2022-08-11T08:18:01;20.60;68.20
30174;DHT22;16985;50.814;8.530;2022-08-11T08:20:45;20.80;68.00
30174;DHT22;16985;50.814;8.530;2022-08-11T08:23:14;20.90;67.60
30174;DHT22;16985;50.814;8.530;2022-08-11T08:25:42;21.10;67.10
30174;DHT22;16985;50.814;8.530;2022-08-11T08:28:14;21.20;66.80
30174;DHT22;16985;50.814;8.530;2022-08-11T08:30:42;21.40;66.20
30174;DHT22;16985;50.814;8.530;2022-08-11T08:33:13;21.50;65.50
30174;DHT22;16985;50.814;8.530;2022-08-11T08:35:45;21.70;65.20
30174;DHT22;16985;50.814;8.530;2022-08-11T08:38:13;21.70;64.70
30174;DHT22;16985;50.814;8.530;2022-08-11T08:40:41;22.00;64.20
30174;DHT22;16985;50.814;8.530;2022-08-11T08:43:11;22.20;63.40
30174;DHT22;16985;50.814;8.530;2022-08-11T08:45:41;22.30;62.50
30174;DHT22;16985;50.814;8.530;2022-08-11T08:48:14;22.50;62.30
30174;DHT22;16985;50.814;8.530;2022-08-11T08:50:49;22.60;61.40
30174;DHT22;16985;50.814;8.530;2022-08-11T08:53:49;22.80;60.70
30174;DHT22;16985;50.814;8.530;2022-08-11T08:56:16;22.90;60.10
30174;DHT22;16985;50.814;8.530;2022-08-11T08:58:45;23.10;60.00
30174;DHT22;16985;50.814;8.530;2022-08-11T09:01:14;23.20;59.90
30174;DHT22;16985;50.814;8.530;2022-08-11T09:03:41;23.40;59.50
30174;DHT22;16985;50.814;8.530;2022-08-11T09:06:08;23.50;58.80
30174;DHT22;16985;50.814;8.530;2022-08-11T09:08:35;23.70;58.30
30174;DHT22;16985;50.814;8.530;2022-08-11T09:11:03;23.80;58.30
30174;DHT22;16985;50.814;8.530;2022-08-11T09:13:50;24.10;58.20
30174;DHT22;16985;50.814;8.530;2022-08-11T09:16:17;24.10;57.80
30174;DHT22;16985;50.814;8.530;2022-08-11T09:18:43;24.30;57.60
30174;DHT22;16985;50.814;8.530;2022-08-11T09:21:11;24.50;57.20
30174;DHT22;16985;50.814;8.530;2022-08-11T09:23:40;24.60;56.70
30174;DHT22;16985;50.814;8.530;2022-08-11T09:26:26;24.80;56.40
30174;DHT22;16985;50.814;8.530;2022-08-11T09:29:11;24.90;55.90
30174;DHT22;16985;50.814;8.530;2022-08-11T09:31:38;25.10;55.40
30174;DHT22;16985;50.814;8.530;2022-08-11T09:34:04;25.20;55.00
30174;DHT22;16985;50.814;8.530;2022-08-11T09:36:30;25.30;54.40
30174;DHT22;16985;50.814;8.530;2022-08-11T09:39:15;25.50;54.10
30174;DHT22;16985;50.814;8.530;2022-08-11T09:42:01;25.60;53.60
30174;DHT22;16985;50.814;8.530;2022-08-11T09:44:29;25.80;53.20
30174;DHT22;16985;50.814;8.530;2022-08-11T09:47:30;25.90;53.10
30174;DHT22;16985;50.814;8.530;2022-08-11T09:50:01;26.10;52.80
30174;DHT22;16985;50.814;8.530;2022-08-11T09:52:40;26.30;52.50
30174;DHT22;16985;50.814;8.530;2022-08-11T09:55:06;26.40;51.90
30174;DHT22;16985;50.814;8.530;2022-08-11T09:57:38;26.60;51.60
30174;DHT22;16985;50.814;8.530;2022-08-11T10:00:32;26.70;51.20
30174;DHT22;16985;50.814;8.530;2022-08-11T10:03:05;26.90;50.20
30174;DHT22;16985;50.814;8.530;2022-08-11T10:05:36;27.10;49.20
30174;DHT22;16985;50.814;8.530;2022-08-11T10:08:25;27.20;49.10
30174;DHT22;16985;50.814;8.530;2022-08-11T10:10:53;27.30;48.60
30174;DHT22;16985;50.814;8.530;2022-08-11T10:13:20;27.40;48.30
30174;DHT22;16985;50.814;8.530;2022-08-11T10:15:55;27.50;47.60
30174;DHT22;16985;50.814;8.530;2022-08-11T10:18:33;27.70;46.80
30174;DHT22;16985;50.814;8.530;2022-08-11T10:21:35;27.80;46.70
30174;DHT22;16985;50.814;8.530;2022-08-11T10:24:38;28.00;46.60
30174;DHT22;16985;50.814;8.530;2022-08-11T10:27:25;28.10;46.30
30174;DHT22;16985;50.814;8.530;2022-08-11T10:29:52;28.20;46.40
30174;DHT22;16985;50.814;8.530;2022-08-11T10:32:37;28.30;46.40
30174;DHT22;16985;50.814;8.530;2022-08-11T10:35:22;28.30;46.10
30174;DHT22;16985;50.814;8.530;2022-08-11T10:37:52;28.60;46.40
30174;DHT22;16985;50.814;8.530;2022-08-11T10:40:20;28.80;46.30
30174;DHT22;16985;50.814;8.530;2022-08-11T10:42:52;28.80;45.30
30174;DHT22;16985;50.814;8.530;2022-08-11T10:45:43;28.90;45.10
30174;DHT22;16985;50.814;8.530;2022-08-11T10:48:31;29.00;45.10
30174;DHT22;16985;50.814;8.530;2022-08-11T10:51:00;29.10;44.60
30174;DHT22;16985;50.814;8.530;2022-08-11T10:53:42;29.20;44.20
30174;DHT22;16985;50.814;8.530;2022-08-11T10:56:31;29.30;43.90
30174;DHT22;16985;50.814;8.530;2022-08-11T10:59:18;29.40;43.80
30174;DHT22;16985;50.814;8.530;2022-08-11T11:01:45;29.40;43.10
30174;DHT22;16985;50.814;8.530;2022-08-11T11:04:15;29.50;43.10
30174;DHT22;16985;50.814;8.530;2022-08-11T11:07:03;29.60;43.30
30174;DHT22;16985;50.814;8.530;2022-08-11T11:09:40;29.80;43.30
30174;DHT22;16985;50.814;8.530;2022-08-11T11:12:52;30.00;42.40
30174;DHT22;16985;50.814;8.530;2022-08-11T11:15:41;30.20;42.50
30174;DHT22;16985;50.814;8.530;2022-08-11T11:18:31;30.20;42.50
30174;DHT22;16985;50.814;8.530;2022-08-11T11:21:14;30.40;42.40
30174;DHT22;16985;50.814;8.530;2022-08-11T11:24:22;30.50;42.00
30174;DHT22;16985;50.814;8.530;2022-08-11T11:27:13;30.60;41.20
30174;DHT22;16985;50.814;8.530;2022-08-11T11:35:03;31.00;40.70
30174;DHT22;16985;50.814;8.530;2022-08-11T11:37:45;31.10;40.50
30174;DHT22;16985;50.814;8.530;2022-08-11T11:40:16;31.20;40.20
30174;DHT22;16985;50.814;8.530;2022-08-11T11:42:47;31.30;40.20
30174;DHT22;16985;50.814;8.530;2022-08-11T11:45:16;31.50;40.60
30174;DHT22;16985;50.814;8.530;2022-08-11T11:47:43;31.50;40.40
30174;DHT22;16985;50.814;8.530;2022-08-11T11:50:10;31.50;40.20
30174;DHT22;16985;50.814;8.530;2022-08-11T11:52:37;31.60;40.10
30174;DHT22;16985;50.814;8.530;2022-08-11T11:55:05;31.70;39.20
30174;DHT22;16985;50.814;8.530;2022-08-11T11:57:31;31.80;38.70
30174;DHT22;16985;50.814;8.530;2022-08-11T12:00:18;32.00;38.30
30174;DHT22;16985;50.814;8.530;2022-08-11T12:03:08;32.10;38.70
30174;DHT22;16985;50.814;8.530;2022-08-11T12:05:36;32.20;38.50
30174;DHT22;16985;50.814;8.530;2022-08-11T12:08:04;32.20;39.10
30174;DHT22;16985;50.814;8.530;2022-08-11T12:10:52;32.30;39.30
30174;DHT22;16985;50.814;8.530;2022-08-11T12:13:46;32.40;39.20
30174;DHT22;16985;50.814;8.530;2022-08-11T12:16:17;32.40;39.30
30174;DHT22;16985;50.814;8.530;2022-08-11T12:18:46;32.50;39.40
30174;DHT22;16985;50.814;8.530;2022-08-11T12:21:15;32.50;39.60
30174;DHT22;16985;50.814;8.530;2022-08-11T12:23:42;32.60;39.30
30174;DHT22;16985;50.814;8.530;2022-08-11T12:26:29;32.60;39.30
30174;DHT22;16985;50.814;8.530;2022-08-11T12:29:15;32.70;39.50
30174;DHT22;16985;50.814;8.530;2022-08-11T12:31:45;32.80;38.30
30174;DHT22;16985;50.814;8.530;2022-08-11T12:34:12;32.90;38.00
30174;DHT22;16985;50.814;8.530;2022-08-11T12:36:45;33.00;38.40
30174;DHT22;16985;50.814;8.530;2022-08-11T12:39:18;33.00;38.10
30174;DHT22;16985;50.814;8.530;2022-08-11T12:42:07;33.00;38.30
30174;DHT22;16985;50.814;8.530;2022-08-11T12:44:55;33.10;38.20
30174;DHT22;16985;50.814;8.530;2022-08-11T12:47:49;33.00;37.50
30174;DHT22;16985;50.814;8.530;2022-08-11T12:50:34;33.20;37.90
30174;DHT22;16985;50.814;8.530;2022-08-11T12:53:26;33.20;37.40
30174;DHT22;16985;50.814;8.530;2022-08-11T12:56:01;33.30;37.40
30174;DHT22;16985;50.814;8.530;2022-08-11T12:58:48;33.30;37.50
30174;DHT22;16985;50.814;8.530;2022-08-11T13:01:16;33.30;37.80
30174;DHT22;16985;50.814;8.530;2022-08-11T13:04:00;33.40;37.60
30174;DHT22;16985;50.814;8.530;2022-08-11T13:06:45;33.40;38.10
30174;DHT22;16985;50.814;8.530;2022-08-11T13:09:11;33.40;37.70
30174;DHT22;16985;50.814;8.530;2022-08-11T13:11:39;33.40;38.00
30174;DHT22;16985;50.814;8.530;2022-08-11T13:14:25;33.50;37.70
30174;DHT22;16985;50.814;8.530;2022-08-11T13:16:52;33.40;37.60
30174;DHT22;16985;50.814;8.530;2022-08-11T13:19:37;33.50;37.80
30174;DHT22;16985;50.814;8.530;2022-08-11T13:22:06;33.60;37.70
30174;DHT22;16985;50.814;8.530;2022-08-11T13:24:32;33.50;37.50
30174;DHT22;16985;50.814;8.530;2022-08-11T13:26:59;33.50;37.20
30174;DHT22;16985;50.814;8.530;2022-08-11T13:29:26;33.50;36.80
30174;DHT22;16985;50.814;8.530;2022-08-11T13:31:55;33.50;36.60
30174;DHT22;16985;50.814;8.530;2022-08-11T13:34:27;33.40;36.50
30174;DHT22;16985;50.814;8.530;2022-08-11T13:36:58;33.40;36.40
30174;DHT22;16985;50.814;8.530;2022-08-11T13:39:27;33.40;36.40
30174;DHT22;16985;50.814;8.530;2022-08-11T13:41:56;33.40;37.00
30174;DHT22;16985;50.814;8.530;2022-08-11T13:44:26;33.50;36.60
30174;DHT22;16985;50.814;8.530;2022-08-11T13:46:56;33.60;36.40
30174;DHT22;16985;50.814;8.530;2022-08-11T13:49:23;33.60;36.40
30174;DHT22;16985;50.814;8.530;2022-08-11T13:51:51;33.60;35.60
30174;DHT22;16985;50.814;8.530;2022-08-11T13:54:21;33.50;35.40
30174;DHT22;16985;50.814;8.530;2022-08-11T13:56:53;33.50;35.20
30174;DHT22;16985;50.814;8.530;2022-08-11T13:59:22;33.40;35.30
30174;DHT22;16985;50.814;8.530;2022-08-11T14:01:52;33.40;35.40
30174;DHT22;16985;50.814;8.530;2022-08-11T14:04:29;33.40;35.70
30174;DHT22;16985;50.814;8.530;2022-08-11T14:06:59;33.40;35.50
30174;DHT22;16985;50.814;8.530;2022-08-11T14:09:34;33.40;35.40
30174;DHT22;16985;50.814;8.530;2022-08-11T14:12:12;33.40;35.70
30174;DHT22;16985;50.814;8.530;2022-08-11T14:15:09;33.50;35.70
30174;DHT22;16985;50.814;8.530;2022-08-11T14:17:47;33.50;35.60
30174;DHT22;16985;50.814;8.530;2022-08-11T14:20:19;33.50;35.90
30174;DHT22;16985;50.814;8.530;2022-08-11T14:22:45;33.50;35.90
30174;DHT22;16985;50.814;8.530;2022-08-11T14:25:15;33.40;35.40
30174;DHT22;16985;50.814;8.530;2022-08-11T14:27:43;33.50;35.50
30174;DHT22;16985;50.814;8.530;2022-08-11T14:30:10;33.50;35.40
30174;DHT22;16985;50.814;8.530;2022-08-11T14:32:56;33.50;35.70
30174;DHT22;16985;50.814;8.530;2022-08-11T14:35:24;33.50;35.60
30174;DHT22;16985;50.814;8.530;2022-08-11T14:37:52;33.50;35.80
30174;DHT22;16985;50.814;8.530;2022-08-11T14:40:18;33.50;35.70
30174;DHT22;16985;50.814;8.530;2022-08-11T14:43:03;33.50;35.70
30174;DHT22;16985;50.814;8.530;2022-08-11T14:45:48;33.50;35.60
30174;DHT22;16985;50.814;8.530;2022-08-11T14:48:34;33.40;35.40
30174;DHT22;16985;50.814;8.530;2022-08-11T14:51:02;33.30;35.40
30174;DHT22;16985;50.814;8.530;2022-08-11T14:53:29;33.30;35.40
30174;DHT22;16985;50.814;8.530;2022-08-11T14:55:56;33.20;35.60
30174;DHT22;16985;50.814;8.530;2022-08-11T14:58:41;33.20;35.80
30174;DHT22;16985;50.814;8.530;2022-08-11T15:01:07;33.10;35.90
30174;DHT22;16985;50.814;8.530;2022-08-11T15:03:55;33.00;35.80
30174;DHT22;16985;50.814;8.530;2022-08-11T15:06:24;32.90;36.10
30174;DHT22;16985;50.814;8.530;2022-08-11T15:08:53;32.80;36.20
30174;DHT22;16985;50.814;8.530;2022-08-11T15:11:21;32.80;36.30
30174;DHT22;16985;50.814;8.530;2022-08-11T15:14:09;32.80;36.40
30174;DHT22;16985;50.814;8.530;2022-08-11T15:16:39;32.80;36.50
30174;DHT22;16985;50.814;8.530;2022-08-11T15:19:27;32.80;36.30
30174;DHT22;16985;50.814;8.530;2022-08-11T15:21:54;32.80;36.30
30174;DHT22;16985;50.814;8.530;2022-08-11T15:24:39;32.80;36.40
30174;DHT22;16985;50.814;8.530;2022-08-11T15:27:11;32.80;36.50
30174;DHT22;16985;50.814;8.530;2022-08-11T15:29:58;32.70;36.60
30174;DHT22;16985;50.814;8.530;2022-08-11T15:32:44;32.60;36.40
30174;DHT22;16985;50.814;8.530;2022-08-11T15:35:29;32.50;36.20
30174;DHT22;16985;50.814;8.530;2022-08-11T15:38:16;32.40;36.40
30174;DHT22;16985;50.814;8.530;2022-08-11T15:40:43;32.30;36.30
30174;DHT22;16985;50.814;8.530;2022-08-11T15:43:42;32.30;36.50
30174;DHT22;16985;50.814;8.530;2022-08-11T15:46:31;32.20;36.60
30174;DHT22;16985;50.814;8.530;2022-08-11T15:49:01;32.20;36.40
30174;DHT22;16985;50.814;8.530;2022-08-11T15:51:29;32.10;36.20
30174;DHT22;16985;50.814;8.530;2022-08-11T15:54:08;32.00;36.00
30174;DHT22;16985;50.814;8.530;2022-08-11T15:56:40;31.90;36.00
30174;DHT22;16985;50.814;8.530;2022-08-11T15:59:10;31.90;36.10
30174;DHT22;16985;50.814;8.530;2022-08-11T16:01:56;31.80;36.30
30174;DHT22;16985;50.814;8.530;2022-08-11T16:04:57;31.60;36.70
30174;DHT22;16985;50.814;8.530;2022-08-11T16:07:30;31.50;36.70
30174;DHT22;16985;50.814;8.530;2022-08-11T16:10:09;31.50;37.00
30174;DHT22;16985;50.814;8.530;2022-08-11T16:12:39;31.30;37.10
30174;DHT22;16985;50.814;8.530;2022-08-11T16:15:28;31.20;37.10
30174;DHT22;16985;50.814;8.530;2022-08-11T16:18:15;31.00;37.20
30174;DHT22;16985;50.814;8.530;2022-08-11T16:20:42;30.90;37.40
30174;DHT22;16985;50.814;8.530;2022-08-11T16:23:09;30.70;37.50
30174;DHT22;16985;50.814;8.530;2022-08-11T16:25:35;30.70;37.50
30174;DHT22;16985;50.814;8.530;2022-08-11T16:28:03;30.60;37.70
30174;DHT22;16985;50.814;8.530;2022-08-11T16:30:33;30.40;37.80
30174;DHT22;16985;50.814;8.530;2022-08-11T16:33:01;30.40;38.20
30174;DHT22;16985;50.814;8.530;2022-08-11T16:35:32;30.30;38.30
30174;DHT22;16985;50.814;8.530;2022-08-11T16:38:19;30.20;38.40
30174;DHT22;16985;50.814;8.530;2022-08-11T16:41:12;30.00;38.40
30174;DHT22;16985;50.814;8.530;2022-08-11T16:43:45;30.00;38.60
30174;DHT22;16985;50.814;8.530;2022-08-11T16:46:31;29.90;38.70
30174;DHT22;16985;50.814;8.530;2022-08-11T16:49:21;29.80;38.80
30174;DHT22;16985;50.814;8.530;2022-08-11T16:51:50;29.70;38.90
30174;DHT22;16985;50.814;8.530;2022-08-11T16:54:17;29.60;39.00
30174;DHT22;16985;50.814;8.530;2022-08-11T16:56:49;29.60;39.70
30174;DHT22;16985;50.814;8.530;2022-08-11T16:59:29;29.60;39.10
30174;DHT22;16985;50.814;8.530;2022-08-11T17:07:37;29.40;39.30
30174;DHT22;16985;50.814;8.530;2022-08-11T17:10:43;29.40;39.40
30174;DHT22;16985;50.814;8.530;2022-08-11T17:14:11;29.20;39.50
30174;DHT22;16985;50.814;8.530;2022-08-11T17:16:35;29.10;39.60
30174;DHT22;16985;50.814;8.530;2022-08-11T17:19:08;29.10;39.50
30174;DHT22;16985;50.814;8.530;2022-08-11T17:21:40;29.00;39.50
30174;DHT22;16985;50.814;8.530;2022-08-11T17:24:29;29.00;39.80
30174;DHT22;16985;50.814;8.530;2022-08-11T17:26:56;28.80;39.60
30174;DHT22;16985;50.814;8.530;2022-08-11T17:32:24;28.70;39.80
30174;DHT22;16985;50.814;8.530;2022-08-11T17:35:18;28.60;39.90
30174;DHT22;16985;50.814;8.530;2022-08-11T17:38:19;28.50;39.80
30174;DHT22;16985;50.814;8.530;2022-08-11T17:40:50;28.40;40.00
30174;DHT22;16985;50.814;8.530;2022-08-11T17:43:37;28.30;39.90
30174;DHT22;16985;50.814;8.530;2022-08-11T17:46:24;28.20;40.00
30174;DHT22;16985;50.814;8.530;2022-08-11T17:49:10;28.10;40.20
30174;DHT22;16985;50.814;8.530;2022-08-11T17:51:38;28.10;40.40
30174;DHT22;16985;50.814;8.530;2022-08-11T17:54:24;28.00;40.60
30174;DHT22;16985;50.814;8.530;2022-08-11T17:57:10;27.90;40.70
30174;DHT22;16985;50.814;8.530;2022-08-11T17:59:56;27.90;40.60
30174;DHT22;16985;50.814;8.530;2022-08-11T18:02:33;27.80;40.60
30174;DHT22;16985;50.814;8.530;2022-08-11T18:05:20;27.70;40.70
30174;DHT22;16985;50.814;8.530;2022-08-11T18:07:53;27.60;40.80
30174;DHT22;16985;50.814;8.530;2022-08-11T18:10:40;27.60;41.00
30174;DHT22;16985;50.814;8.530;2022-08-11T18:13:27;27.50;41.30
30174;DHT22;16985;50.814;8.530;2022-08-11T18:16:13;27.50;41.20
30174;DHT22;16985;50.814;8.530;2022-08-11T18:18:58;27.30;41.20
30174;DHT22;16985;50.814;8.530;2022-08-11T18:21:43;27.30;41.30
30174;DHT22;16985;50.814;8.530;2022-08-11T18:24:33;27.20;41.50
30174;DHT22;16985;50.814;8.530;2022-08-11T18:27:21;27.20;41.70
30174;DHT22;16985;50.814;8.530;2022-08-11T18:30:06;27.10;41.80
30174;DHT22;16985;50.814;8.530;2022-08-11T18:32:53;27.00;42.00
30174;DHT22;16985;50.814;8.530;2022-08-11T18:35:40;26.90;42.20
30174;DHT22;16985;50.814;8.530;2022-08-11T18:38:26;26.90;42.60
30174;DHT22;16985;50.814;8.530;2022-08-11T18:41:12;26.80;42.80
30174;DHT22;16985;50.814;8.530;2022-08-11T18:44:02;26.70;43.20
30174;DHT22;16985;50.814;8.530;2022-08-11T18:46:49;26.60;43.60
30174;DHT22;16985;50.814;8.530;2022-08-11T18:49:38;26.50;43.80
30174;DHT22;16985;50.814;8.530;2022-08-11T18:52:24;26.40;43.70
30174;DHT22;16985;50.814;8.530;2022-08-11T18:55:14;26.20;43.80
30174;DHT22;16985;50.814;8.530;2022-08-11T18:58:03;26.20;44.10
30174;DHT22;16985;50.814;8.530;2022-08-11T19:00:53;26.00;44.60
30174;DHT22;16985;50.814;8.530;2022-08-11T19:03:40;26.00;45.30
30174;DHT22;16985;50.814;8.530;2022-08-11T19:06:26;25.80;45.50
30174;DHT22;16985;50.814;8.530;2022-08-11T19:09:12;25.70;45.90
30174;DHT22;16985;50.814;8.530;2022-08-11T19:11:59;25.60;46.20
30174;DHT22;16985;50.814;8.530;2022-08-11T19:14:47;25.50;46.30
30174;DHT22;16985;50.814;8.530;2022-08-11T19:17:35;25.30;46.30
30174;DHT22;16985;50.814;8.530;2022-08-11T19:20:24;25.20;46.60
30174;DHT22;16985;50.814;8.530;2022-08-11T19:23:13;25.00;47.00
30174;DHT22;16985;50.814;8.530;2022-08-11T19:26:00;24.90;47.10
30174;DHT22;16985;50.814;8.530;2022-08-11T19:28:48;24.70;47.30
30174;DHT22;16985;50.814;8.530;2022-08-11T19:31:34;24.60;47.40
30174;DHT22;16985;50.814;8.530;2022-08-11T19:34:21;24.50;47.60
30174;DHT22;16985;50.814;8.530;2022-08-11T19:37:08;24.40;47.70